sensor_id;sensor_type;location;lat;lon;timestamp;P1;durP1;ratioP1;P2;durP2;ratioP2
29728;SDS011;20055;51.498;11.960;2023-02-25T00:01:57;21.40;;;8.23;;
29728;SDS011;20055;51.498;11.960;2023-02-25T00:04:26;25.77;;;7.90;;
29728;SDS011;20055;51.498;11.960;2023-02-25T00:06:53;23.80;;;8.43;;
29728;SDS011;20055;51.498;11.960;2023-02-25T00:09:20;20.90;;;7.72;;
29728;SDS011;20055;51.498;11.960;2023-02-25T00:11:46;21.75;;;7.70;;
29728;SDS011;20055;51.498;11.960;2023-02-25T00:14:13;17.42;;;7.45;;
29728;SDS011;20055;51.498;11.960;2023-02-25T00:16:39;22.33;;;7.57;;
29728;SDS011;20055;51.498;11.960;2023-02-25T00:19:06;20.88;;;7.57;;
29728;SDS011;20055;51.498;11.960;2023-02-25T00:21:33;25.45;;;7.35;;
29728;SDS011;20055;51.498;11.960;2023-02-25T00:23:59;20.58;;;6.75;;
29728;SDS011;20055;51.498;11.960;2023-02-25T00:26:26;26.88;;;6.88;;
29728;SDS011;20055;51.498;11.960;2023-02-25T00:28:53;21.10;;;6.22;;
29728;SDS011;20055;51.498;11.960;2023-02-25T00:31:22;13.32;;;6.30;;
29728;SDS011;20055;51.498;11.960;2023-02-25T00:33:49;16.13;;;5.43;;
29728;SDS011;20055;51.498;11.960;2023-02-25T00:36:20;17.17;;;5.25;;
29728;SDS011;20055;51.498;11.960;2023-02-25T00:38:51;15.73;;;6.10;;
29728;SDS011;20055;51.498;11.960;2023-02-25T00:41:19;21.80;;;6.22;;
29728;SDS011;20055;51.498;11.960;2023-02-25T00:43:56;22.15;;;6.13;;
29728;SDS011;20055;51.498;11.960;2023-02-25T00:46:23;17.35;;;4.75;;
29728;SDS011;20055;51.498;11.960;2023-02-25T00:48:51;24.98;;;5.22;;
29728;SDS011;20055;51.498;11.960;2023-02-25T00:51:20;25.40;;;7.15;;
29728;SDS011;20055;51.498;11.960;2023-02-25T00:53:48;33.03;;;6.03;;
29728;SDS011;20055;51.498;11.960;2023-02-25T00:56:15;24.65;;;5.32;;
29728;SDS011;20055;51.498;11.960;2023-02-25T00:58:42;31.30;;;7.93;;
29728;SDS011;20055;51.498;11.960;2023-02-25T01:01:23;19.00;;;4.65;;
29728;SDS011;20055;51.498;11.960;2023-02-25T01:03:50;18.05;;;4.28;;
29728;SDS011;20055;51.498;11.960;2023-02-25T01:06:17;17.85;;;4.20;;
29728;SDS011;20055;51.498;11.960;2023-02-25T01:08:44;23.55;;;4.65;;
29728;SDS011;20055;51.498;11.960;2023-02-25T01:11:11;17.85;;;3.83;;
29728;SDS011;20055;51.498;11.960;2023-02-25T01:13:38;16.95;;;3.97;;
29728;SDS011;20055;51.498;11.960;2023-02-25T01:16:16;22.58;;;4.40;;
29728;SDS011;20055;51.498;11.960;2023-02-25T01:18:43;19.80;;;4.28;;
29728;SDS011;20055;51.498;11.960;2023-02-25T01:21:18;26.73;;;4.70;;
29728;SDS011;20055;51.498;11.960;2023-02-25T01:23:45;20.98;;;4.20;;
29728;SDS011;20055;51.498;11.960;2023-02-25T01:26:13;25.33;;;4.40;;
29728;SDS011;20055;51.498;11.960;2023-02-25T01:28:40;25.35;;;3.78;;
29728;SDS011;20055;51.498;11.960;2023-02-25T01:31:07;22.20;;;3.80;;
29728;SDS011;20055;51.498;11.960;2023-02-25T01:33:41;23.20;;;4.32;;
29728;SDS011;20055;51.498;11.960;2023-02-25T01:36:08;21.02;;;3.53;;
29728;SDS011;20055;51.498;11.960;2023-02-25T01:38:35;17.95;;;3.83;;
29728;SDS011;20055;51.498;11.960;2023-02-25T01:41:01;18.52;;;4.30;;
29728;SDS011;20055;51.498;11.960;2023-02-25T01:43:28;14.48;;;3.28;;
29728;SDS011;20055;51.498;11.960;2023-02-25T01:45:56;16.13;;;2.88;;
29728;SDS011;20055;51.498;11.960;2023-02-25T01:48:24;8.85;;;2.80;;
29728;SDS011;20055;51.498;11.960;2023-02-25T01:50:56;16.45;;;2.60;;
29728;SDS011;20055;51.498;11.960;2023-02-25T01:53:24;16.77;;;2.88;;
29728;SDS011;20055;51.498;11.960;2023-02-25T01:55:51;16.23;;;3.35;;
29728;SDS011;20055;51.498;11.960;2023-02-25T01:58:18;11.88;;;2.55;;
29728;SDS011;20055;51.498;11.960;2023-02-25T02:00:46;9.02;;;3.92;;
29728;SDS011;20055;51.498;11.960;2023-02-25T02:03:13;24.73;;;3.90;;
29728;SDS011;20055;51.498;11.960;2023-02-25T02:08:28;11.40;;;3.17;;
29728;SDS011;20055;51.498;11.960;2023-02-25T02:10:57;13.38;;;2.80;;
29728;SDS011;20055;51.498;11.960;2023-02-25T02:13:24;23.05;;;3.95;;
29728;SDS011;20055;51.498;11.960;2023-02-25T02:15:54;13.30;;;3.15;;
29728;SDS011;20055;51.498;11.960;2023-02-25T02:18:25;12.75;;;3.30;;
29728;SDS011;20055;51.498;11.960;2023-02-25T02:20:59;29.00;;;3.75;;
29728;SDS011;20055;51.498;11.960;2023-02-25T02:26:37;10.93;;;2.95;;
29728;SDS011;20055;51.498;11.960;2023-02-25T02:31:56;19.77;;;5.15;;
29728;SDS011;20055;51.498;11.960;2023-02-25T02:44:56;19.83;;;4.13;;
29728;SDS011;20055;51.498;11.960;2023-02-25T02:47:29;11.98;;;3.00;;
29728;SDS011;20055;51.498;11.960;2023-02-25T02:50:03;23.58;;;3.25;;
29728;SDS011;20055;51.498;11.960;2023-02-25T02:52:31;21.45;;;3.17;;
29728;SDS011;20055;51.498;11.960;2023-02-25T02:54:59;16.67;;;3.20;;
29728;SDS011;20055;51.498;11.960;2023-02-25T02:57:27;21.75;;;2.92;;
29728;SDS011;20055;51.498;11.960;2023-02-25T03:00:00;16.27;;;3.38;;
29728;SDS011;20055;51.498;11.960;2023-02-25T03:02:39;18.38;;;3.15;;
29728;SDS011;20055;51.498;11.960;2023-02-25T03:05:08;23.15;;;3.88;;
29728;SDS011;20055;51.498;11.960;2023-02-25T03:07:37;28.77;;;3.20;;
29728;SDS011;20055;51.498;11.960;2023-02-25T03:10:07;19.52;;;3.55;;
29728;SDS011;20055;51.498;11.960;2023-02-25T03:12:36;9.65;;;2.83;;
29728;SDS011;20055;51.498;11.960;2023-02-25T03:15:04;10.23;;;3.10;;
29728;SDS011;20055;51.498;11.960;2023-02-25T03:17:35;4.75;;;1.90;;
29728;SDS011;20055;51.498;11.960;2023-02-25T03:20:09;5.10;;;2.35;;
29728;SDS011;20055;51.498;11.960;2023-02-25T03:22:38;5.05;;;2.28;;
29728;SDS011;20055;51.498;11.960;2023-02-25T03:25:08;4.77;;;2.37;;
29728;SDS011;20055;51.498;11.960;2023-02-25T03:27:36;4.97;;;2.33;;
29728;SDS011;20055;51.498;11.960;2023-02-25T03:30:06;6.50;;;2.50;;
29728;SDS011;20055;51.498;11.960;2023-02-25T03:32:42;15.85;;;2.55;;
29728;SDS011;20055;51.498;11.960;2023-02-25T03:35:10;10.68;;;2.85;;
29728;SDS011;20055;51.498;11.960;2023-02-25T03:37:37;5.85;;;2.72;;
29728;SDS011;20055;51.498;11.960;2023-02-25T03:40:05;11.48;;;3.25;;
29728;SDS011;20055;51.498;11.960;2023-02-25T03:42:38;10.32;;;3.72;;
29728;SDS011;20055;51.498;11.960;2023-02-25T03:45:07;10.65;;;2.63;;
29728;SDS011;20055;51.498;11.960;2023-02-25T03:47:36;7.72;;;2.92;;
29728;SDS011;20055;51.498;11.960;2023-02-25T03:52:30;4.30;;;2.55;;
29728;SDS011;20055;51.498;11.960;2023-02-25T03:57:35;4.25;;;2.60;;
29728;SDS011;20055;51.498;11.960;2023-02-25T04:00:03;3.70;;;2.70;;
29728;SDS011;20055;51.498;11.960;2023-02-25T04:02:40;5.15;;;3.47;;
29728;SDS011;20055;51.498;11.960;2023-02-25T04:05:07;6.13;;;2.83;;
29728;SDS011;20055;51.498;11.960;2023-02-25T04:07:35;16.20;;;3.63;;
29728;SDS011;20055;51.498;11.960;2023-02-25T04:10:03;10.32;;;3.58;;
29728;SDS011;20055;51.498;11.960;2023-02-25T04:12:30;4.22;;;2.33;;
29728;SDS011;20055;51.498;11.960;2023-02-25T04:14:56;11.95;;;2.38;;
29728;SDS011;20055;51.498;11.960;2023-02-25T04:17:24;7.47;;;2.65;;
29728;SDS011;20055;51.498;11.960;2023-02-25T04:19:51;12.27;;;2.95;;
29728;SDS011;20055;51.498;11.960;2023-02-25T04:22:17;9.50;;;3.67;;
29728;SDS011;20055;51.498;11.960;2023-02-25T04:24:44;4.57;;;3.25;;
29728;SDS011;20055;51.498;11.960;2023-02-25T04:27:10;12.38;;;3.05;;
29728;SDS011;20055;51.498;11.960;2023-02-25T04:29:43;9.57;;;3.03;;
29728;SDS011;20055;51.498;11.960;2023-02-25T04:32:10;10.43;;;3.10;;
29728;SDS011;20055;51.498;11.960;2023-02-25T04:34:37;7.68;;;3.08;;
29728;SDS011;20055;51.498;11.960;2023-02-25T04:37:03;9.52;;;2.85;;
29728;SDS011;20055;51.498;11.960;2023-02-25T04:39:30;9.80;;;3.60;;
29728;SDS011;20055;51.498;11.960;2023-02-25T04:41:57;14.77;;;2.60;;
29728;SDS011;20055;51.498;11.960;2023-02-25T04:44:24;4.25;;;2.00;;
29728;SDS011;20055;51.498;11.960;2023-02-25T04:46:50;3.17;;;2.30;;
29728;SDS011;20055;51.498;11.960;2023-02-25T04:49:18;7.30;;;1.95;;
29728;SDS011;20055;51.498;11.960;2023-02-25T04:51:45;13.25;;;2.20;;
29728;SDS011;20055;51.498;11.960;2023-02-25T04:54:12;2.42;;;2.22;;
29728;SDS011;20055;51.498;11.960;2023-02-25T04:56:38;7.03;;;1.88;;
29728;SDS011;20055;51.498;11.960;2023-02-25T04:59:05;5.95;;;1.80;;
29728;SDS011;20055;51.498;11.960;2023-02-25T05:01:32;8.85;;;2.47;;
29728;SDS011;20055;51.498;11.960;2023-02-25T05:03:59;3.85;;;2.13;;
29728;SDS011;20055;51.498;11.960;2023-02-25T05:06:28;3.65;;;1.83;;
29728;SDS011;20055;51.498;11.960;2023-02-25T05:08:55;8.73;;;2.10;;
29728;SDS011;20055;51.498;11.960;2023-02-25T05:11:22;1.98;;;1.80;;
29728;SDS011;20055;51.498;11.960;2023-02-25T05:13:49;3.63;;;1.95;;
29728;SDS011;20055;51.498;11.960;2023-02-25T05:16:16;6.28;;;1.50;;
29728;SDS011;20055;51.498;11.960;2023-02-25T05:18:44;5.55;;;2.20;;
29728;SDS011;20055;51.498;11.960;2023-02-25T05:21:12;6.28;;;1.92;;
29728;SDS011;20055;51.498;11.960;2023-02-25T05:23:40;8.77;;;1.80;;
29728;SDS011;20055;51.498;11.960;2023-02-25T05:26:08;6.70;;;2.25;;
29728;SDS011;20055;51.498;11.960;2023-02-25T05:28:34;5.28;;;2.22;;
29728;SDS011;20055;51.498;11.960;2023-02-25T05:31:07;11.05;;;3.28;;
29728;SDS011;20055;51.498;11.960;2023-02-25T05:33:34;12.63;;;2.75;;
29728;SDS011;20055;51.498;11.960;2023-02-25T05:36:04;8.13;;;2.20;;
29728;SDS011;20055;51.498;11.960;2023-02-25T05:38:31;11.75;;;2.80;;
29728;SDS011;20055;51.498;11.960;2023-02-25T05:40:58;10.30;;;2.15;;
29728;SDS011;20055;51.498;11.960;2023-02-25T05:43:25;11.35;;;2.92;;
29728;SDS011;20055;51.498;11.960;2023-02-25T05:45:52;4.97;;;2.17;;
29728;SDS011;20055;51.498;11.960;2023-02-25T05:48:19;7.93;;;2.67;;
29728;SDS011;20055;51.498;11.960;2023-02-25T05:50:46;7.53;;;2.58;;
29728;SDS011;20055;51.498;11.960;2023-02-25T05:53:15;10.07;;;2.60;;
29728;SDS011;20055;51.498;11.960;2023-02-25T05:55:42;6.80;;;2.72;;
29728;SDS011;20055;51.498;11.960;2023-02-25T05:58:08;10.10;;;2.60;;
29728;SDS011;20055;51.498;11.960;2023-02-25T06:00:36;10.25;;;2.85;;
29728;SDS011;20055;51.498;11.960;2023-02-25T06:03:03;13.93;;;2.80;;
29728;SDS011;20055;51.498;11.960;2023-02-25T06:05:30;6.20;;;2.60;;
29728;SDS011;20055;51.498;11.960;2023-02-25T06:07:57;11.23;;;2.90;;
29728;SDS011;20055;51.498;11.960;2023-02-25T06:10:24;9.57;;;3.65;;
29728;SDS011;20055;51.498;11.960;2023-02-25T06:12:51;14.65;;;3.03;;
29728;SDS011;20055;51.498;11.960;2023-02-25T06:15:18;8.35;;;3.33;;
29728;SDS011;20055;51.498;11.960;2023-02-25T06:17:44;11.60;;;3.22;;
29728;SDS011;20055;51.498;11.960;2023-02-25T06:20:11;12.15;;;3.75;;
29728;SDS011;20055;51.498;11.960;2023-02-25T06:22:41;8.20;;;3.72;;
29728;SDS011;20055;51.498;11.960;2023-02-25T06:25:08;9.73;;;3.65;;
29728;SDS011;20055;51.498;11.960;2023-02-25T06:27:34;8.85;;;3.95;;
29728;SDS011;20055;51.498;11.960;2023-02-25T06:30:01;14.63;;;4.20;;
29728;SDS011;20055;51.498;11.960;2023-02-25T06:32:28;19.13;;;4.30;;
29728;SDS011;20055;51.498;11.960;2023-02-25T06:34:54;14.07;;;4.55;;
29728;SDS011;20055;51.498;11.960;2023-02-25T06:37:21;13.60;;;4.45;;
29728;SDS011;20055;51.498;11.960;2023-02-25T06:39:48;5.90;;;3.50;;
29728;SDS011;20055;51.498;11.960;2023-02-25T06:42:14;8.48;;;3.25;;
29728;SDS011;20055;51.498;11.960;2023-02-25T06:44:41;8.48;;;3.00;;
29728;SDS011;20055;51.498;11.960;2023-02-25T06:47:07;9.15;;;3.55;;
29728;SDS011;20055;51.498;11.960;2023-02-25T06:49:34;14.52;;;3.58;;
29728;SDS011;20055;51.498;11.960;2023-02-25T06:52:01;10.55;;;3.03;;
29728;SDS011;20055;51.498;11.960;2023-02-25T06:54:27;9.10;;;3.42;;
29728;SDS011;20055;51.498;11.960;2023-02-25T06:56:54;5.95;;;2.63;;
29728;SDS011;20055;51.498;11.960;2023-02-25T06:59:20;6.38;;;3.10;;
29728;SDS011;20055;51.498;11.960;2023-02-25T07:01:47;11.10;;;4.07;;
29728;SDS011;20055;51.498;11.960;2023-02-25T07:04:14;5.63;;;3.17;;
29728;SDS011;20055;51.498;11.960;2023-02-25T07:06:41;5.15;;;3.05;;
29728;SDS011;20055;51.498;11.960;2023-02-25T07:09:08;5.88;;;3.35;;
29728;SDS011;20055;51.498;11.960;2023-02-25T07:11:35;15.77;;;2.80;;
29728;SDS011;20055;51.498;11.960;2023-02-25T07:14:03;9.10;;;3.20;;
29728;SDS011;20055;51.498;11.960;2023-02-25T07:16:30;7.25;;;2.70;;
29728;SDS011;20055;51.498;11.960;2023-02-25T07:18:59;6.53;;;2.70;;
29728;SDS011;20055;51.498;11.960;2023-02-25T07:21:28;5.30;;;2.72;;
29728;SDS011;20055;51.498;11.960;2023-02-25T07:23:56;2.85;;;2.38;;
29728;SDS011;20055;51.498;11.960;2023-02-25T07:26:22;4.82;;;2.45;;
29728;SDS011;20055;51.498;11.960;2023-02-25T07:28:56;6.63;;;2.60;;
29728;SDS011;20055;51.498;11.960;2023-02-25T07:31:24;5.68;;;2.92;;
29728;SDS011;20055;51.498;11.960;2023-02-25T07:33:51;3.58;;;2.63;;
29728;SDS011;20055;51.498;11.960;2023-02-25T07:36:19;6.30;;;2.70;;
29728;SDS011;20055;51.498;11.960;2023-02-25T07:38:46;12.52;;;2.95;;
29728;SDS011;20055;51.498;11.960;2023-02-25T07:41:16;4.63;;;2.37;;
29728;SDS011;20055;51.498;11.960;2023-02-25T07:43:43;4.28;;;2.63;;
29728;SDS011;20055;51.498;11.960;2023-02-25T07:46:10;3.17;;;2.28;;
29728;SDS011;20055;51.498;11.960;2023-02-25T07:48:40;6.47;;;2.47;;
29728;SDS011;20055;51.498;11.960;2023-02-25T07:51:08;5.00;;;2.60;;
29728;SDS011;20055;51.498;11.960;2023-02-25T07:53:35;5.47;;;3.00;;
29728;SDS011;20055;51.498;11.960;2023-02-25T07:56:02;4.70;;;2.58;;
29728;SDS011;20055;51.498;11.960;2023-02-25T07:58:30;11.40;;;2.85;;
29728;SDS011;20055;51.498;11.960;2023-02-25T08:00:57;5.47;;;2.80;;
29728;SDS011;20055;51.498;11.960;2023-02-25T08:03:24;4.47;;;2.60;;
29728;SDS011;20055;51.498;11.960;2023-02-25T08:05:51;4.45;;;3.03;;
29728;SDS011;20055;51.498;11.960;2023-02-25T08:08:19;4.18;;;2.88;;
29728;SDS011;20055;51.498;11.960;2023-02-25T08:10:46;5.50;;;2.80;;
29728;SDS011;20055;51.498;11.960;2023-02-25T08:13:12;10.73;;;3.22;;
29728;SDS011;20055;51.498;11.960;2023-02-25T08:15:42;6.88;;;3.28;;
29728;SDS011;20055;51.498;11.960;2023-02-25T08:18:09;4.35;;;3.33;;
29728;SDS011;20055;51.498;11.960;2023-02-25T08:20:35;4.68;;;2.88;;
29728;SDS011;20055;51.498;11.960;2023-02-25T08:23:02;9.43;;;3.33;;
29728;SDS011;20055;51.498;11.960;2023-02-25T08:25:29;8.57;;;3.47;;
29728;SDS011;20055;51.498;11.960;2023-02-25T08:27:56;11.35;;;3.22;;
29728;SDS011;20055;51.498;11.960;2023-02-25T08:30:22;4.97;;;3.40;;
29728;SDS011;20055;51.498;11.960;2023-02-25T08:32:49;8.82;;;3.03;;
29728;SDS011;20055;51.498;11.960;2023-02-25T08:35:15;4.95;;;3.08;;
29728;SDS011;20055;51.498;11.960;2023-02-25T08:37:42;11.45;;;2.78;;
29728;SDS011;20055;51.498;11.960;2023-02-25T08:40:10;7.45;;;2.50;;
29728;SDS011;20055;51.498;11.960;2023-02-25T08:42:38;14.88;;;2.90;;
29728;SDS011;20055;51.498;11.960;2023-02-25T08:45:05;6.38;;;3.28;;
29728;SDS011;20055;51.498;11.960;2023-02-25T08:47:31;4.20;;;2.80;;
29728;SDS011;20055;51.498;11.960;2023-02-25T08:49:58;3.53;;;2.60;;
29728;SDS011;20055;51.498;11.960;2023-02-25T08:52:25;5.78;;;2.33;;
29728;SDS011;20055;51.498;11.960;2023-02-25T08:55:01;4.93;;;2.67;;
29728;SDS011;20055;51.498;11.960;2023-02-25T08:57:28;3.13;;;2.20;;
29728;SDS011;20055;51.498;11.960;2023-02-25T08:59:55;6.05;;;2.55;;
29728;SDS011;20055;51.498;11.960;2023-02-25T09:02:22;4.22;;;2.55;;
29728;SDS011;20055;51.498;11.960;2023-02-25T09:04:49;3.67;;;2.75;;
29728;SDS011;20055;51.498;11.960;2023-02-25T09:07:15;9.75;;;2.70;;
29728;SDS011;20055;51.498;11.960;2023-02-25T09:09:42;4.13;;;2.00;;
29728;SDS011;20055;51.498;11.960;2023-02-25T09:12:09;3.33;;;2.67;;
29728;SDS011;20055;51.498;11.960;2023-02-25T09:14:36;2.45;;;2.25;;
29728;SDS011;20055;51.498;11.960;2023-02-25T09:17:03;3.10;;;2.45;;
29728;SDS011;20055;51.498;11.960;2023-02-25T09:19:30;7.13;;;3.00;;
29728;SDS011;20055;51.498;11.960;2023-02-25T09:21:57;7.30;;;3.03;;
29728;SDS011;20055;51.498;11.960;2023-02-25T09:24:24;6.60;;;3.08;;
29728;SDS011;20055;51.498;11.960;2023-02-25T09:29:20;4.55;;;2.70;;
29728;SDS011;20055;51.498;11.960;2023-02-25T09:31:47;9.82;;;3.33;;
29728;SDS011;20055;51.498;11.960;2023-02-25T09:34:13;5.22;;;3.20;;
29728;SDS011;20055;51.498;11.960;2023-02-25T09:36:40;5.55;;;2.80;;
29728;SDS011;20055;51.498;11.960;2023-02-25T09:39:07;6.72;;;3.70;;
29728;SDS011;20055;51.498;11.960;2023-02-25T09:44:12;10.75;;;3.45;;
29728;SDS011;20055;51.498;11.960;2023-02-25T09:46:50;6.38;;;3.38;;
29728;SDS011;20055;51.498;11.960;2023-02-25T09:51:50;7.95;;;3.72;;
29728;SDS011;20055;51.498;11.960;2023-02-25T09:54:21;10.32;;;4.03;;
29728;SDS011;20055;51.498;11.960;2023-02-25T09:56:48;16.75;;;3.92;;
29728;SDS011;20055;51.498;11.960;2023-02-25T09:59:16;5.78;;;3.78;;
29728;SDS011;20055;51.498;11.960;2023-02-25T10:04:18;13.02;;;3.95;;
29728;SDS011;20055;51.498;11.960;2023-02-25T10:06:48;7.07;;;3.45;;
29728;SDS011;20055;51.498;11.960;2023-02-25T10:19:27;7.88;;;4.18;;
29728;SDS011;20055;51.498;11.960;2023-02-25T10:24:33;6.82;;;3.58;;
29728;SDS011;20055;51.498;11.960;2023-02-25T10:27:06;7.57;;;4.07;;
29728;SDS011;20055;51.498;11.960;2023-02-25T10:29:37;9.45;;;4.40;;
29728;SDS011;20055;51.498;11.960;2023-02-25T10:35:11;9.80;;;4.10;;
29728;SDS011;20055;51.498;11.960;2023-02-25T10:37:39;5.55;;;3.50;;
29728;SDS011;20055;51.498;11.960;2023-02-25T10:40:06;10.32;;;4.28;;
29728;SDS011;20055;51.498;11.960;2023-02-25T10:42:36;4.97;;;3.75;;
29728;SDS011;20055;51.498;11.960;2023-02-25T10:45:07;7.20;;;4.28;;
29728;SDS011;20055;51.498;11.960;2023-02-25T10:47:35;8.23;;;3.88;;
29728;SDS011;20055;51.498;11.960;2023-02-25T10:50:12;5.88;;;3.63;;
29728;SDS011;20055;51.498;11.960;2023-02-25T10:52:53;4.55;;;3.42;;
29728;SDS011;20055;51.498;11.960;2023-02-25T10:57:53;4.38;;;3.30;;
29728;SDS011;20055;51.498;11.960;2023-02-25T11:02:49;6.30;;;2.80;;
29728;SDS011;20055;51.498;11.960;2023-02-25T11:07:55;6.55;;;3.47;;
29728;SDS011;20055;51.498;11.960;2023-02-25T11:10:22;2.97;;;2.65;;
29728;SDS011;20055;51.498;11.960;2023-02-25T11:12:52;3.08;;;2.30;;
29728;SDS011;20055;51.498;11.960;2023-02-25T11:17:53;6.78;;;2.55;;
29728;SDS011;20055;51.498;11.960;2023-02-25T11:20:21;6.88;;;2.47;;
29728;SDS011;20055;51.498;11.960;2023-02-25T11:22:50;5.00;;;2.33;;
29728;SDS011;20055;51.498;11.960;2023-02-25T11:25:19;2.35;;;2.10;;
29728;SDS011;20055;51.498;11.960;2023-02-25T11:27:47;6.95;;;2.00;;
29728;SDS011;20055;51.498;11.960;2023-02-25T11:30:19;3.92;;;2.08;;
29728;SDS011;20055;51.498;11.960;2023-02-25T11:32:53;3.83;;;2.45;;
29728;SDS011;20055;51.498;11.960;2023-02-25T11:35:32;3.88;;;2.25;;
29728;SDS011;20055;51.498;11.960;2023-02-25T11:40:45;4.90;;;2.63;;
29728;SDS011;20055;51.498;11.960;2023-02-25T11:43:19;2.33;;;2.17;;
29728;SDS011;20055;51.498;11.960;2023-02-25T11:53:23;7.82;;;2.30;;
29728;SDS011;20055;51.498;11.960;2023-02-25T12:01:19;3.70;;;2.70;;
29728;SDS011;20055;51.498;11.960;2023-02-25T12:03:50;8.27;;;2.72;;
29728;SDS011;20055;51.498;11.960;2023-02-25T12:06:23;3.30;;;2.50;;
29728;SDS011;20055;51.498;11.960;2023-02-25T12:09:18;4.30;;;2.65;;
29728;SDS011;20055;51.498;11.960;2023-02-25T12:14:37;5.63;;;2.90;;
29728;SDS011;20055;51.498;11.960;2023-02-25T12:22:41;5.00;;;2.40;;
29728;SDS011;20055;51.498;11.960;2023-02-25T12:25:08;3.65;;;2.33;;
29728;SDS011;20055;51.498;11.960;2023-02-25T12:32:53;4.35;;;2.60;;
29728;SDS011;20055;51.498;11.960;2023-02-25T12:35:37;4.88;;;2.30;;
29728;SDS011;20055;51.498;11.960;2023-02-25T12:43:30;2.50;;;1.88;;
29728;SDS011;20055;51.498;11.960;2023-02-25T12:56:11;6.93;;;2.95;;
29728;SDS011;20055;51.498;11.960;2023-02-25T13:01:21;6.85;;;2.67;;
29728;SDS011;20055;51.498;11.960;2023-02-25T13:04:03;1.83;;;1.73;;
29728;SDS011;20055;51.498;11.960;2023-02-25T13:06:43;2.17;;;1.70;;
29728;SDS011;20055;51.498;11.960;2023-02-25T13:22:21;3.08;;;2.20;;
29728;SDS011;20055;51.498;11.960;2023-02-25T13:27:55;1.30;;;1.20;;
29728;SDS011;20055;51.498;11.960;2023-02-25T13:30:25;1.48;;;1.38;;
29728;SDS011;20055;51.498;11.960;2023-02-25T13:46:12;2.45;;;1.60;;
29728;SDS011;20055;51.498;11.960;2023-02-25T13:49:02;3.40;;;1.60;;
29728;SDS011;20055;51.498;11.960;2023-02-25T13:54:05;6.32;;;1.60;;
29728;SDS011;20055;51.498;11.960;2023-02-25T13:57:13;1.70;;;1.60;;
29728;SDS011;20055;51.498;11.960;2023-02-25T13:59:37;2.80;;;1.70;;
29728;SDS011;20055;51.498;11.960;2023-02-25T14:15:06;1.40;;;1.30;;
29728;SDS011;20055;51.498;11.960;2023-02-25T14:17:47;5.63;;;2.13;;
29728;SDS011;20055;51.498;11.960;2023-02-25T14:20:20;3.30;;;1.77;;
29728;SDS011;20055;51.498;11.960;2023-02-25T14:23:07;8.82;;;1.42;;
29728;SDS011;20055;51.498;11.960;2023-02-25T14:28:19;10.50;;;2.10;;
29728;SDS011;20055;51.498;11.960;2023-02-25T14:36:46;2.08;;;1.60;;
29728;SDS011;20055;51.498;11.960;2023-02-25T14:41:26;3.35;;;1.80;;
29728;SDS011;20055;51.498;11.960;2023-02-25T14:43:56;4.90;;;1.73;;
29728;SDS011;20055;51.498;11.960;2023-02-25T14:59:41;3.05;;;1.88;;
29728;SDS011;20055;51.498;11.960;2023-02-25T15:07:42;5.32;;;2.10;;
29728;SDS011;20055;51.498;11.960;2023-02-25T15:10:31;6.88;;;2.13;;
29728;SDS011;20055;51.498;11.960;2023-02-25T15:21:28;9.48;;;2.00;;
29728;SDS011;20055;51.498;11.960;2023-02-25T15:23:59;5.32;;;2.20;;
29728;SDS011;20055;51.498;11.960;2023-02-25T15:26:38;8.07;;;2.50;;
29728;SDS011;20055;51.498;11.960;2023-02-25T15:29:04;7.40;;;2.90;;
29728;SDS011;20055;51.498;11.960;2023-02-25T15:31:43;6.05;;;3.78;;
29728;SDS011;20055;51.498;11.960;2023-02-25T15:34:31;3.95;;;2.50;;
29728;SDS011;20055;51.498;11.960;2023-02-25T15:37:16;4.80;;;2.60;;
29728;SDS011;20055;51.498;11.960;2023-02-25T15:42:10;4.68;;;2.80;;
29728;SDS011;20055;51.498;11.960;2023-02-25T15:44:46;10.18;;;2.92;;
29728;SDS011;20055;51.498;11.960;2023-02-25T15:47:26;8.63;;;2.47;;
29728;SDS011;20055;51.498;11.960;2023-02-25T15:49:53;4.35;;;3.15;;
29728;SDS011;20055;51.498;11.960;2023-02-25T15:55:14;8.60;;;2.80;;
29728;SDS011;20055;51.498;11.960;2023-02-25T15:57:44;5.88;;;3.00;;
29728;SDS011;20055;51.498;11.960;2023-02-25T16:02:56;9.20;;;2.53;;
29728;SDS011;20055;51.498;11.960;2023-02-25T16:05:26;6.47;;;2.80;;
29728;SDS011;20055;51.498;11.960;2023-02-25T16:08:05;4.60;;;2.60;;
29728;SDS011;20055;51.498;11.960;2023-02-25T16:10:44;8.23;;;3.58;;
29728;SDS011;20055;51.498;11.960;2023-02-25T16:13:14;4.25;;;2.10;;
29728;SDS011;20055;51.498;11.960;2023-02-25T16:15:50;5.10;;;2.40;;
29728;SDS011;20055;51.498;11.960;2023-02-25T16:20:47;2.10;;;1.50;;
29728;SDS011;20055;51.498;11.960;2023-02-25T16:23:14;2.40;;;1.30;;
29728;SDS011;20055;51.498;11.960;2023-02-25T16:28:22;2.83;;;1.98;;
29728;SDS011;20055;51.498;11.960;2023-02-25T16:31:03;3.72;;;1.73;;
29728;SDS011;20055;51.498;11.960;2023-02-25T16:33:44;3.13;;;1.95;;
29728;SDS011;20055;51.498;11.960;2023-02-25T16:36:20;2.70;;;1.65;;
29728;SDS011;20055;51.498;11.960;2023-02-25T16:39:00;5.30;;;2.20;;
29728;SDS011;20055;51.498;11.960;2023-02-25T16:41:27;2.92;;;1.90;;
29728;SDS011;20055;51.498;11.960;2023-02-25T16:43:54;4.57;;;2.22;;
29728;SDS011;20055;51.498;11.960;2023-02-25T16:46:31;10.70;;;2.38;;
29728;SDS011;20055;51.498;11.960;2023-02-25T16:48:59;5.88;;;2.80;;
29728;SDS011;20055;51.498;11.960;2023-02-25T16:54:09;3.65;;;2.10;;
29728;SDS011;20055;51.498;11.960;2023-02-25T16:56:38;3.55;;;1.80;;
29728;SDS011;20055;51.498;11.960;2023-02-25T16:59:13;4.95;;;2.60;;
29728;SDS011;20055;51.498;11.960;2023-02-25T17:04:16;11.65;;;2.20;;
29728;SDS011;20055;51.498;11.960;2023-02-25T17:07:04;13.27;;;2.03;;
29728;SDS011;20055;51.498;11.960;2023-02-25T17:09:31;8.13;;;1.90;;
29728;SDS011;20055;51.498;11.960;2023-02-25T17:11:57;9.63;;;2.10;;
29728;SDS011;20055;51.498;11.960;2023-02-25T17:14:25;6.57;;;2.45;;
29728;SDS011;20055;51.498;11.960;2023-02-25T17:16:53;8.43;;;2.38;;
29728;SDS011;20055;51.498;11.960;2023-02-25T17:19:20;6.03;;;1.83;;
29728;SDS011;20055;51.498;11.960;2023-02-25T17:21:57;9.20;;;2.15;;
29728;SDS011;20055;51.498;11.960;2023-02-25T17:24:28;7.90;;;2.13;;
29728;SDS011;20055;51.498;11.960;2023-02-25T17:26:56;10.40;;;2.35;;
29728;SDS011;20055;51.498;11.960;2023-02-25T17:29:22;2.13;;;1.83;;
29728;SDS011;20055;51.498;11.960;2023-02-25T17:31:57;8.93;;;2.40;;
29728;SDS011;20055;51.498;11.960;2023-02-25T17:34:26;8.25;;;2.50;;
29728;SDS011;20055;51.498;11.960;2023-02-25T17:36:53;7.15;;;2.13;;
29728;SDS011;20055;51.498;11.960;2023-02-25T17:39:21;10.48;;;2.55;;
29728;SDS011;20055;51.498;11.960;2023-02-25T17:41:48;8.82;;;2.47;;
29728;SDS011;20055;51.498;11.960;2023-02-25T17:47:08;4.00;;;1.50;;
29728;SDS011;20055;51.498;11.960;2023-02-25T17:49:35;10.93;;;2.03;;
29728;SDS011;20055;51.498;11.960;2023-02-25T17:52:06;4.80;;;2.30;;
29728;SDS011;20055;51.498;11.960;2023-02-25T17:54:33;4.07;;;2.38;;
29728;SDS011;20055;51.498;11.960;2023-02-25T17:57:02;10.27;;;2.40;;
29728;SDS011;20055;51.498;11.960;2023-02-25T18:02:02;10.25;;;2.33;;
29728;SDS011;20055;51.498;11.960;2023-02-25T18:04:38;8.27;;;2.83;;
29728;SDS011;20055;51.498;11.960;2023-02-25T18:09:58;6.93;;;2.15;;
29728;SDS011;20055;51.498;11.960;2023-02-25T18:12:26;13.65;;;3.00;;
29728;SDS011;20055;51.498;11.960;2023-02-25T18:14:54;10.88;;;3.03;;
29728;SDS011;20055;51.498;11.960;2023-02-25T18:17:25;10.00;;;2.65;;
29728;SDS011;20055;51.498;11.960;2023-02-25T18:19:53;4.63;;;2.67;;
29728;SDS011;20055;51.498;11.960;2023-02-25T18:24:56;16.50;;;2.70;;